createdAt,value
2019-02-09T00:00:36.662Z,16.48
2019-02-09T00:03:07.599Z,15.63
2019-02-09T00:05:37.261Z,15.63
2019-02-09T00:08:09.258Z,16.40
2019-02-09T00:10:39.442Z,14.98
2019-02-09T00:13:09.156Z,17.12
2019-02-09T00:15:41.449Z,17.27
2019-02-09T00:18:10.699Z,21.27
2019-02-09T00:20:39.837Z,19.40
2019-02-09T00:23:12.401Z,18.30
2019-02-09T00:25:42.295Z,15.55
2019-02-09T00:28:13.583Z,18.80
2019-02-09T00:30:43.186Z,18.07
2019-02-09T00:33:13.867Z,17.62
2019-02-09T00:35:45.213Z,19.80
2019-02-09T00:38:16.086Z,16.48
2019-02-09T00:40:45.214Z,23.05
2019-02-09T00:43:14.455Z,24.00
2019-02-09T00:45:45.809Z,24.05
2019-02-09T00:48:15.129Z,24.15
2019-02-09T00:50:44.253Z,16.57
2019-02-09T00:53:13.369Z,18.32
2019-02-09T00:55:43.623Z,17.62
2019-02-09T00:58:13.024Z,24.00
2019-02-09T01:00:42.767Z,23.02
2019-02-09T01:03:11.898Z,24.07
2019-02-09T01:05:44.004Z,19.90
2019-02-09T01:08:13.397Z,44.48
2019-02-09T01:10:43.138Z,21.35
2019-02-09T01:13:12.326Z,20.05
2019-02-09T01:15:41.603Z,17.55
2019-02-09T01:18:10.924Z,25.27
2019-02-09T01:20:40.204Z,21.48
2019-02-09T01:23:09.465Z,18.40
2019-02-09T01:25:39.768Z,19.05
2019-02-09T01:28:13.223Z,22.80
2019-02-09T01:30:42.419Z,19.55
2019-02-09T01:33:11.969Z,19.17
2019-02-09T01:35:41.904Z,19.73
2019-02-09T01:38:13.897Z,17.65
2019-02-09T01:40:49.184Z,18.67
2019-02-09T01:46:08.472Z,17.37
2019-02-09T01:48:38.457Z,19.25
2019-02-09T01:51:12.750Z,18.23
2019-02-09T01:53:42.849Z,18.52
2019-02-09T01:56:18.530Z,17.98
2019-02-09T01:58:49.749Z,16.65
2019-02-09T02:04:13.520Z,17.75
2019-02-09T02:06:42.037Z,18.00
2019-02-09T02:09:11.470Z,17.77
2019-02-09T02:11:43.463Z,15.85
2019-02-09T02:14:14.349Z,16.30
2019-02-09T02:16:43.609Z,15.72
2019-02-09T02:19:14.276Z,16.00
2019-02-09T02:21:43.765Z,17.17
2019-02-09T02:24:19.518Z,15.50
2019-02-09T02:26:49.357Z,19.40
2019-02-09T02:29:20.246Z,19.20
2019-02-09T02:31:54.243Z,21.75
2019-02-09T02:34:23.087Z,22.50
2019-02-09T02:36:53.523Z,20.30
2019-02-09T02:39:22.387Z,18.90
2019-02-09T02:41:52.475Z,18.67
2019-02-09T02:47:11.034Z,21.45
2019-02-09T02:49:41.935Z,19.23
2019-02-09T02:52:14.181Z,22.67
2019-02-09T02:54:47.802Z,20.82
2019-02-09T02:57:17.054Z,24.18
2019-02-09T02:59:47.081Z,21.48
2019-02-09T03:02:25.982Z,19.37
2019-02-09T03:04:58.173Z,20.90
2019-02-09T03:07:28.208Z,23.40
2019-02-09T03:09:59.198Z,22.42
2019-02-09T03:12:28.788Z,22.55
2019-02-09T03:14:58.953Z,22.15
2019-02-09T03:17:28.231Z,19.75
2019-02-09T03:19:57.590Z,20.95
2019-02-09T03:22:28.124Z,22.77
2019-02-09T03:25:01.219Z,17.85
2019-02-09T03:27:29.710Z,17.32
2019-02-09T03:29:58.477Z,21.97
2019-02-09T03:32:36.649Z,18.92
2019-02-09T03:35:08.167Z,16.95
2019-02-09T03:37:40.098Z,18.70
2019-02-09T03:40:12.023Z,13.80
2019-02-09T03:42:42.303Z,15.15
2019-02-09T03:45:23.244Z,12.03
2019-02-09T03:47:53.384Z,12.45
2019-02-09T03:50:26.887Z,10.13
2019-02-09T03:52:56.492Z,12.10
2019-02-09T03:55:35.263Z,9.70
2019-02-09T03:58:04.814Z,10.35
2019-02-09T04:00:37.288Z,9.93
2019-02-09T04:03:09.843Z,11.60
2019-02-09T04:05:39.375Z,11.25
2019-02-09T04:08:08.053Z,12.03
2019-02-09T04:10:37.621Z,8.98
2019-02-09T04:13:06.578Z,8.78
2019-02-09T04:15:35.443Z,9.95
2019-02-09T04:18:04.581Z,9.80
2019-02-09T04:20:33.800Z,9.88
2019-02-09T04:23:04.076Z,9.98
2019-02-09T04:25:33.118Z,10.05
2019-02-09T04:28:02.599Z,10.43
2019-02-09T04:30:33.609Z,8.10
2019-02-09T04:33:02.627Z,10.55
2019-02-09T04:35:31.788Z,10.20
2019-02-09T04:38:01.015Z,10.60
2019-02-09T04:40:32.130Z,12.80
2019-02-09T04:43:01.655Z,10.65
2019-02-09T04:45:31.223Z,11.85
2019-02-09T04:48:00.017Z,15.70
2019-02-09T04:50:28.826Z,9.80
2019-02-09T04:52:57.594Z,9.73
2019-02-09T04:55:27.187Z,12.25
2019-02-09T04:57:56.295Z,24.77
2019-02-09T05:00:26.608Z,13.45
2019-02-09T05:02:55.386Z,13.08
2019-02-09T05:05:24.294Z,15.13
2019-02-09T05:07:53.370Z,18.55
2019-02-09T05:10:24.892Z,11.40
2019-02-09T05:12:54.054Z,19.90
2019-02-09T05:15:23.122Z,15.80
2019-02-09T05:17:52.449Z,18.07
2019-02-09T05:20:24.770Z,19.80
2019-02-09T05:22:54.481Z,12.18
2019-02-09T05:25:23.313Z,11.93
2019-02-09T05:27:52.612Z,12.63
2019-02-09T05:30:24.948Z,9.55
2019-02-09T05:32:54.018Z,12.75
2019-02-09T05:35:23.906Z,9.45
2019-02-09T05:37:53.691Z,15.83
2019-02-09T05:40:24.792Z,12.33
2019-02-09T05:42:54.457Z,13.18
2019-02-09T05:45:27.991Z,12.95
2019-02-09T05:47:56.878Z,9.83
2019-02-09T05:50:26.099Z,10.40
2019-02-09T05:52:55.217Z,10.55
2019-02-09T05:55:24.166Z,10.98
2019-02-09T05:57:53.089Z,12.65
2019-02-09T06:00:34.411Z,11.88
2019-02-09T06:03:03.691Z,8.95
2019-02-09T06:05:32.323Z,11.93
2019-02-09T06:08:01.090Z,8.90
2019-02-09T06:10:29.837Z,11.80
2019-02-09T06:12:59.011Z,14.10
2019-02-09T06:15:29.301Z,12.85
2019-02-09T06:17:59.011Z,12.68
2019-02-09T06:20:30.833Z,10.28
2019-02-09T06:22:59.891Z,11.45
2019-02-09T06:25:28.554Z,10.00
2019-02-09T06:27:57.511Z,11.08
2019-02-09T06:30:28.936Z,13.08
2019-02-09T06:32:57.989Z,8.63
2019-02-09T06:35:27.242Z,12.47
2019-02-09T06:37:56.660Z,8.15
2019-02-09T06:40:25.803Z,8.60
2019-02-09T06:42:54.942Z,7.40
2019-02-09T06:45:26.237Z,10.15
2019-02-09T06:48:16.534Z,8.10
2019-02-09T06:50:45.667Z,6.45
2019-02-09T06:53:14.976Z,7.83
2019-02-09T06:55:44.494Z,6.12
2019-02-09T06:58:13.767Z,7.53
2019-02-09T07:00:43.151Z,8.70
2019-02-09T07:03:12.367Z,8.65
2019-02-09T07:05:41.665Z,7.70
2019-02-09T07:08:11.926Z,4.92
2019-02-09T07:10:42.067Z,7.05
2019-02-09T07:13:11.277Z,11.30
2019-02-09T07:15:41.056Z,5.03
2019-02-09T07:18:10.293Z,4.10
2019-02-09T07:20:39.906Z,5.50
2019-02-09T07:23:09.214Z,6.10
2019-02-09T07:25:38.404Z,6.65
2019-02-09T07:28:07.686Z,6.30
2019-02-09T07:30:37.276Z,5.30
2019-02-09T07:33:07.989Z,6.83
2019-02-09T07:35:37.442Z,6.45
2019-02-09T07:38:06.504Z,5.92
2019-02-09T07:40:35.618Z,6.05
2019-02-09T07:43:04.882Z,5.87
2019-02-09T07:45:35.111Z,3.50
2019-02-09T07:48:04.936Z,3.90
2019-02-09T07:50:33.825Z,3.40
2019-02-09T07:53:02.619Z,3.52
2019-02-09T07:55:31.488Z,2.95
2019-02-09T07:58:00.238Z,3.20
2019-02-09T08:00:33.253Z,3.60
2019-02-09T08:03:02.415Z,3.10
2019-02-09T08:05:32.499Z,3.95
2019-02-09T08:08:01.797Z,2.85
2019-02-09T08:10:37.056Z,3.10
2019-02-09T08:13:09.612Z,2.87
2019-02-09T08:15:38.947Z,4.03
2019-02-09T08:18:08.826Z,4.08
2019-02-09T08:20:38.228Z,2.42
2019-02-09T08:23:12.306Z,3.75
2019-02-09T08:25:42.260Z,2.55
2019-02-09T08:28:12.726Z,2.40
2019-02-09T08:30:44.427Z,2.60
2019-02-09T08:33:13.756Z,2.40
2019-02-09T08:35:43.954Z,2.47
2019-02-09T08:38:14.735Z,2.22
2019-02-09T08:40:43.584Z,2.10
2019-02-09T08:43:12.543Z,2.27
2019-02-09T08:45:41.897Z,1.82
2019-02-09T08:48:11.199Z,1.72
2019-02-09T08:50:42.935Z,2.47
2019-02-09T08:53:12.308Z,2.12
2019-02-09T08:55:41.917Z,2.30
2019-02-09T08:58:11.142Z,2.30
2019-02-09T09:00:40.784Z,2.70
2019-02-09T09:03:10.043Z,2.62
2019-02-09T09:05:39.417Z,2.52
2019-02-09T09:08:08.676Z,2.75
2019-02-09T09:10:38.880Z,4.05
2019-02-09T09:13:08.187Z,4.37
2019-02-09T09:15:39.827Z,3.52
2019-02-09T09:18:09.027Z,3.08
2019-02-09T09:20:47.539Z,4.22
2019-02-09T09:23:16.817Z,2.35
2019-02-09T09:25:46.193Z,2.75
2019-02-09T09:28:15.269Z,2.25
2019-02-09T09:30:44.428Z,2.95
2019-02-09T09:33:13.734Z,1.95
2019-02-09T09:35:44.505Z,2.20
2019-02-09T09:38:13.974Z,2.40
2019-02-09T09:40:44.749Z,2.80
2019-02-09T09:43:14.259Z,12.63
2019-02-09T09:45:44.329Z,13.65
2019-02-09T09:48:18.621Z,14.63
2019-02-09T09:50:47.948Z,14.87
2019-02-09T09:53:17.162Z,16.35
2019-02-09T09:55:46.664Z,17.45
2019-02-09T09:58:16.857Z,18.48
2019-02-09T10:00:46.040Z,19.73
2019-02-09T10:03:14.904Z,21.90
2019-02-09T10:05:43.658Z,24.52
2019-02-09T10:08:12.529Z,18.65
2019-02-09T10:10:42.088Z,22.40
2019-02-09T10:13:11.565Z,19.82
2019-02-09T10:15:40.832Z,20.25
2019-02-09T10:18:10.283Z,20.50
2019-02-09T10:20:39.286Z,21.48
2019-02-09T10:23:08.532Z,20.20
2019-02-09T10:25:37.958Z,22.45
2019-02-09T10:28:07.003Z,23.20
2019-02-09T10:30:36.582Z,22.40
2019-02-09T10:33:05.948Z,23.87
2019-02-09T10:35:35.371Z,24.57
2019-02-09T10:38:04.619Z,23.55
2019-02-09T10:40:35.480Z,24.32
2019-02-09T10:43:06.350Z,24.12
2019-02-09T10:45:35.763Z,25.25
2019-02-09T10:48:06.838Z,24.00
2019-02-09T10:50:41.513Z,21.30
2019-02-09T10:53:11.425Z,22.02
2019-02-09T10:55:40.180Z,25.32
2019-02-09T10:58:11.127Z,25.25
2019-02-09T11:00:45.744Z,24.37
2019-02-09T11:03:15.137Z,21.33
2019-02-09T11:05:44.626Z,28.30
2019-02-09T11:08:15.012Z,26.50
2019-02-09T11:10:44.435Z,28.35
2019-02-09T11:13:13.909Z,28.75
2019-02-09T11:15:43.304Z,26.93
2019-02-09T11:18:12.650Z,25.43
2019-02-09T11:20:42.068Z,27.75
2019-02-09T11:23:11.508Z,26.48
2019-02-09T11:25:41.822Z,25.60
2019-02-09T11:28:11.017Z,27.67
2019-02-09T11:30:40.447Z,25.75
2019-02-09T11:33:10.996Z,28.00
2019-02-09T11:35:39.745Z,25.77
2019-02-09T11:38:08.609Z,27.32
2019-02-09T11:40:38.228Z,23.67
2019-02-09T11:43:08.706Z,24.82
2019-02-09T11:45:38.247Z,23.98
2019-02-09T11:48:08.248Z,24.18
2019-02-09T11:50:37.684Z,24.72
2019-02-09T11:53:07.810Z,21.37
2019-02-09T11:55:36.995Z,22.98
2019-02-09T11:58:06.123Z,23.73
2019-02-09T12:00:46.743Z,23.70
2019-02-09T12:03:16.338Z,25.55
2019-02-09T12:05:45.793Z,23.73
2019-02-09T12:08:14.926Z,27.50
2019-02-09T12:10:44.344Z,26.17
2019-02-09T12:13:14.488Z,25.62
2019-02-09T12:15:43.686Z,22.67
2019-02-09T12:18:14.213Z,23.30
2019-02-09T12:20:42.946Z,21.25
2019-02-09T12:23:11.813Z,23.62
2019-02-09T12:25:41.319Z,25.10
2019-02-09T12:28:13.844Z,22.30
2019-02-09T12:30:43.226Z,26.07
2019-02-09T12:33:13.128Z,20.45
2019-02-09T12:35:43.801Z,26.93
2019-02-09T12:38:13.176Z,24.10
2019-02-09T12:40:42.513Z,24.02
2019-02-09T12:43:12.649Z,20.12
2019-02-09T12:45:42.025Z,25.85
2019-02-09T12:48:12.002Z,24.02
2019-02-09T12:50:41.304Z,23.00
2019-02-09T12:53:11.589Z,25.35
2019-02-09T12:55:40.629Z,20.12
2019-02-09T12:58:10.225Z,25.80
2019-02-09T13:00:39.921Z,22.90
2019-02-09T13:03:17.251Z,23.55
2019-02-09T13:05:46.005Z,22.10
2019-02-09T13:08:14.720Z,25.82
2019-02-09T13:10:44.125Z,21.70
2019-02-09T13:13:13.511Z,17.92
2019-02-09T13:15:43.063Z,20.32
2019-02-09T13:18:12.903Z,24.40
2019-02-09T13:20:42.773Z,21.87
2019-02-09T13:23:13.062Z,24.63
2019-02-09T13:25:42.127Z,22.98
2019-02-09T13:28:11.207Z,18.05
2019-02-09T13:30:41.484Z,21.82
2019-02-09T13:33:10.846Z,20.17
2019-02-09T13:35:39.881Z,18.67
2019-02-09T13:38:08.938Z,21.00
2019-02-09T13:40:38.151Z,21.82
2019-02-09T13:43:07.414Z,21.37
2019-02-09T13:45:45.234Z,21.57
2019-02-09T13:48:14.077Z,23.12
2019-02-09T13:50:44.065Z,22.77
2019-02-09T13:53:13.455Z,21.52
2019-02-09T13:55:42.941Z,20.40
2019-02-09T13:58:12.789Z,16.35
2019-02-09T14:00:42.082Z,16.48
2019-02-09T14:03:11.236Z,19.17
2019-02-09T14:05:40.264Z,18.10
2019-02-09T14:08:09.683Z,19.02
2019-02-09T14:10:39.351Z,12.55
2019-02-09T14:13:14.238Z,15.28
2019-02-09T14:15:39.693Z,15.70
2019-02-09T14:18:10.272Z,16.17
2019-02-09T14:20:39.398Z,16.90
2019-02-09T14:23:09.080Z,11.65
2019-02-09T14:25:38.321Z,15.32
2019-02-09T14:28:07.900Z,17.17
2019-02-09T14:30:37.919Z,14.98
2019-02-09T14:33:11.890Z,16.48
2019-02-09T14:35:41.781Z,18.52
2019-02-09T14:38:10.701Z,16.25
2019-02-09T14:40:39.731Z,17.00
2019-02-09T14:43:09.071Z,16.57
2019-02-09T14:45:39.524Z,14.30
2019-02-09T14:48:08.851Z,16.65
2019-02-09T14:50:38.900Z,17.30
2019-02-09T14:53:08.595Z,14.10
2019-02-09T14:55:38.798Z,16.65
2019-02-09T14:58:09.152Z,13.70
2019-02-09T15:00:49.499Z,14.60
2019-02-09T15:03:26.122Z,12.78
2019-02-09T15:05:49.651Z,13.85
2019-02-09T15:08:18.981Z,14.07
2019-02-09T15:10:48.182Z,13.68
2019-02-09T15:13:18.161Z,14.30
2019-02-09T15:16:05.082Z,13.22
2019-02-09T15:18:34.364Z,14.90
2019-02-09T15:21:08.587Z,13.20
2019-02-09T15:23:37.661Z,12.65
2019-02-09T15:26:06.959Z,14.05
2019-02-09T15:28:36.160Z,13.65
2019-02-09T15:31:05.528Z,12.65
2019-02-09T15:33:34.944Z,11.88
2019-02-09T15:36:04.440Z,12.13
2019-02-09T15:38:33.798Z,13.43
2019-02-09T15:41:03.189Z,12.37
2019-02-09T15:43:32.615Z,14.50
2019-02-09T15:46:01.786Z,12.65
2019-02-09T15:48:31.088Z,11.40
2019-02-09T15:51:00.690Z,12.95
2019-02-09T15:53:29.834Z,12.60
2019-02-09T15:55:59.176Z,12.78
2019-02-09T15:58:28.518Z,11.60
2019-02-09T16:00:57.165Z,13.90
2019-02-09T16:03:26.793Z,11.90
2019-02-09T16:05:55.435Z,10.65
2019-02-09T16:08:24.668Z,12.68
2019-02-09T16:10:53.868Z,19.10
2019-02-09T16:13:24.052Z,13.85
2019-02-09T16:15:52.971Z,12.07
2019-02-09T16:18:21.765Z,10.08
2019-02-09T16:20:51.776Z,11.20
2019-02-09T16:23:21.111Z,12.05
2019-02-09T16:25:50.380Z,10.13
2019-02-09T16:28:19.746Z,10.78
2019-02-09T16:30:49.200Z,9.83
2019-02-09T16:33:18.381Z,9.55
2019-02-09T16:35:47.667Z,11.20
2019-02-09T16:38:16.773Z,7.78
2019-02-09T16:40:46.030Z,9.93
2019-02-09T16:43:14.734Z,10.58
2019-02-09T16:45:44.155Z,11.50
2019-02-09T16:48:13.575Z,16.93
2019-02-09T16:50:42.359Z,12.53
2019-02-09T16:53:12.031Z,9.15
2019-02-09T16:55:41.259Z,9.63
2019-02-09T16:58:10.551Z,10.15
2019-02-09T17:00:41.355Z,11.25
2019-02-09T17:03:13.404Z,11.88
2019-02-09T17:05:43.454Z,10.70
2019-02-09T17:08:12.332Z,9.08
2019-02-09T17:10:41.501Z,10.45
2019-02-09T17:13:10.627Z,8.40
2019-02-09T17:15:39.872Z,7.45
2019-02-09T17:18:10.499Z,10.95
2019-02-09T17:20:39.563Z,9.05
2019-02-09T17:23:08.659Z,8.90
2019-02-09T17:25:37.725Z,6.50
2019-02-09T17:28:07.364Z,7.35
2019-02-09T17:30:38.432Z,7.95
2019-02-09T17:33:08.085Z,6.40
2019-02-09T17:35:37.601Z,7.50
2019-02-09T17:38:08.170Z,6.70
2019-02-09T17:40:39.500Z,6.78
2019-02-09T17:43:08.800Z,5.95
2019-02-09T17:45:49.113Z,5.47
2019-02-09T17:48:18.258Z,5.92
2019-02-09T17:50:47.308Z,5.55
2019-02-09T17:53:16.952Z,5.25
2019-02-09T17:55:46.275Z,4.60
2019-02-09T17:58:16.800Z,5.92
2019-02-09T18:00:48.598Z,3.90
2019-02-09T18:03:17.842Z,3.70
2019-02-09T18:05:47.400Z,4.00
2019-02-09T18:08:17.069Z,4.47
2019-02-09T18:10:45.808Z,4.28
2019-02-09T18:13:14.455Z,4.10
2019-02-09T18:15:43.309Z,2.95
2019-02-09T18:18:12.162Z,3.67
2019-02-09T18:20:41.557Z,4.00
2019-02-09T18:23:10.819Z,3.25
2019-02-09T18:25:40.101Z,2.90
2019-02-09T18:28:09.442Z,3.27
2019-02-09T18:30:38.748Z,4.08
2019-02-09T18:33:08.086Z,3.67
2019-02-09T18:35:37.168Z,7.70
2019-02-09T18:38:06.417Z,4.60
2019-02-09T18:40:35.915Z,4.53
2019-02-09T18:43:05.084Z,5.15
2019-02-09T18:45:34.718Z,5.65
2019-02-09T18:48:04.051Z,4.62
2019-02-09T18:50:34.257Z,3.65
2019-02-09T18:53:03.609Z,4.20
2019-02-09T18:55:33.189Z,8.53
2019-02-09T18:58:02.670Z,3.08
2019-02-09T19:00:33.648Z,3.25
2019-02-09T19:03:03.364Z,2.83
2019-02-09T19:05:32.540Z,3.12
2019-02-09T19:08:01.673Z,3.00
2019-02-09T19:10:31.079Z,3.20
2019-02-09T19:13:00.663Z,3.62
2019-02-09T19:15:29.979Z,3.55
2019-02-09T19:17:59.733Z,2.75
2019-02-09T19:20:42.891Z,5.37
2019-02-09T19:23:15.429Z,3.37
2019-02-09T19:25:44.429Z,3.77
2019-02-09T19:28:14.002Z,3.72
2019-02-09T19:30:43.164Z,4.37
2019-02-09T19:33:12.571Z,3.95
2019-02-09T19:35:45.382Z,3.00
2019-02-09T19:38:14.999Z,2.60
2019-02-09T19:40:44.324Z,2.10
2019-02-09T19:43:13.760Z,2.80
2019-02-09T19:45:43.182Z,2.77
2019-02-09T19:48:11.933Z,2.40
2019-02-09T19:50:42.070Z,2.22
2019-02-09T19:53:13.913Z,2.55
2019-02-09T19:55:42.811Z,2.17
2019-02-09T19:58:11.966Z,2.40
2019-02-09T20:00:44.354Z,2.60
2019-02-09T20:03:13.663Z,2.80
2019-02-09T20:05:43.094Z,2.27
2019-02-09T20:08:12.280Z,1.90
2019-02-09T20:10:43.585Z,1.70
2019-02-09T20:13:16.481Z,1.17
2019-02-09T20:15:46.153Z,2.05
2019-02-09T20:18:15.542Z,1.55
2019-02-09T20:20:47.262Z,1.65
2019-02-09T20:23:14.798Z,2.35
2019-02-09T20:25:44.451Z,2.20
2019-02-09T20:28:13.259Z,1.92
2019-02-09T20:30:43.128Z,2.85
2019-02-09T20:33:12.418Z,2.40
2019-02-09T20:35:42.366Z,2.25
2019-02-09T20:38:11.684Z,1.72
2019-02-09T20:40:43.020Z,1.90
2019-02-09T20:43:15.062Z,2.80
2019-02-09T20:45:44.479Z,2.60
2019-02-09T20:48:14.042Z,2.40
2019-02-09T20:50:43.501Z,2.00
2019-02-09T20:53:12.641Z,1.95
2019-02-09T20:55:42.260Z,1.50
2019-02-09T20:58:12.207Z,1.70
2019-02-09T21:00:41.574Z,1.90
2019-02-09T21:03:10.715Z,1.90
2019-02-09T21:05:40.109Z,2.22
2019-02-09T21:08:09.479Z,1.98
2019-02-09T21:10:40.404Z,3.15
2019-02-09T21:13:09.262Z,2.08
2019-02-09T21:15:38.116Z,1.98
2019-02-09T21:18:07.474Z,1.70
2019-02-09T21:20:36.736Z,2.05
2019-02-09T21:23:06.306Z,2.35
2019-02-09T21:25:47.096Z,1.98
2019-02-09T21:28:16.472Z,2.30
2019-02-09T21:30:45.854Z,2.35
2019-02-09T21:33:15.203Z,2.70
2019-02-09T21:35:44.542Z,1.90
2019-02-09T21:38:13.962Z,1.67
2019-02-09T21:40:43.747Z,2.10
2019-02-09T21:43:12.803Z,3.10
2019-02-09T21:45:45.409Z,1.77
2019-02-09T21:48:14.156Z,2.85
2019-02-09T21:50:43.368Z,2.85
2019-02-09T21:53:13.476Z,2.05
2019-02-09T21:55:42.253Z,2.37
2019-02-09T21:58:11.425Z,2.20
2019-02-09T22:00:44.675Z,3.85
2019-02-09T22:03:14.587Z,2.40
2019-02-09T22:05:51.523Z,1.67
2019-02-09T22:08:19.542Z,1.90
2019-02-09T22:10:47.186Z,1.98
2019-02-09T22:13:17.579Z,2.50
2019-02-09T22:15:47.215Z,2.20
2019-02-09T22:18:16.427Z,2.12
2019-02-09T22:20:52.541Z,2.52
2019-02-09T22:23:17.204Z,2.40
2019-02-09T22:25:46.445Z,1.70
2019-02-09T22:28:17.221Z,2.00
2019-02-09T22:30:46.435Z,2.20
2019-02-09T22:33:24.043Z,3.00
2019-02-09T22:35:46.227Z,1.60
2019-02-09T22:38:16.290Z,2.20
2019-02-09T22:40:44.934Z,2.17
2019-02-09T22:43:14.395Z,2.45
2019-02-09T22:45:43.162Z,3.20
2019-02-09T22:48:12.603Z,1.67
2019-02-09T22:50:48.173Z,1.80
2019-02-09T22:53:17.337Z,2.02
2019-02-09T22:55:46.705Z,1.50
2019-02-09T22:58:16.103Z,2.27
2019-02-09T23:01:04.776Z,2.15
2019-02-09T23:03:46.189Z,1.70
2019-02-09T23:06:24.780Z,2.33
2019-02-09T23:08:55.423Z,2.00
2019-02-09T23:11:26.096Z,2.25
2019-02-09T23:13:55.030Z,3.35
2019-02-09T23:16:24.673Z,2.52
2019-02-09T23:18:53.834Z,2.40
2019-02-09T23:21:23.123Z,2.17
2019-02-09T23:23:52.240Z,4.35
2019-02-09T23:26:21.206Z,2.72
2019-02-09T23:28:50.505Z,1.85
2019-02-09T23:31:19.997Z,2.05
2019-02-09T23:33:50.371Z,2.92
2019-02-09T23:36:19.957Z,1.90
2019-02-09T23:38:49.364Z,2.60
2019-02-09T23:41:18.648Z,3.95
2019-02-09T23:43:47.981Z,2.50
2019-02-09T23:46:17.478Z,2.70
2019-02-09T23:48:47.166Z,2.08
2019-02-09T23:51:16.875Z,2.40
2019-02-09T23:53:46.113Z,2.50
2019-02-09T23:56:15.535Z,2.47
2019-02-09T23:58:44.587Z,1.70
